Home > Products > Valid Products > TAF

000
FTUS41 KCAR 300520
TAFCAR
TAF
KCAR 300520Z 3006/3106 13004KT P6SM SCT250
     FM301100 14006KT 3SM -SN SCT009 OVC025
     FM301400 13007KT 1SM -SN OVC015
     FM301800 14007KT 3/4SM -SN BR OVC004
     FM310200 02012KT 1/2SM SN FG VV002=



000
FTUS41 KCAR 300520
TAFPQI
TAF
KPQI 300520Z 3006/3106 14007KT P6SM SCT250
     FM301100 15008KT 6SM -SN SCT009 BKN015 OVC080
     FM301500 14006KT 1 1/2SM -SN OVC025
     FM301800 14007KT 1SM -SN BR OVC007
     FM310200 02012KT 1/2SM SN FG VV003
      AMD LTD TO CLD VIS AND WIND=



000
FTUS41 KCAR 300520
TAFBHB
TAF
KBHB 300520Z 3006/3106 00000KT P6SM SKC
     FM301200 14009KT 5SM -SN BKN009 OVC030
     FM301500 14007KT 1/2SM SN FG OVC004
     FM301800 12008KT 1/4SM +SNRA FG VV002
      AMD LTD TO CLD VIS AND WIND=



000
FTUS41 KCAR 300520
TAFBGR
TAF
KBGR 300520Z 3006/3106 00000KT P6SM FEW120 BKN250
     FM301200 13007KT 1SM -SN OVC015
     FM301500 14007KT 1/2SM SN FG OVC002
     FM301800 12007KT 1/4SM +SN FG VV001=



000
FTUS41 KCAR 300520
TAFHUL
TAF
KHUL 300520Z 3006/3106 19003KT P6SM SCT250
     FM301100 13006KT 6SM -SN SCT009 BKN015 OVC070
     FM301500 12007KT 1 1/2SM -SN OVC015
     FM301900 14007KT 3/4SM -SN BR OVC004
     FM310200 02012KT 1/4SM SN FG VV002=



000
FTUS41 KCAR 300315 AAA
TAFBHB
TAF AMD
KBHB 300315Z 3003/3024 00000KT P6SM FEW200
     FM300500 16006KT P6SM BKN015
     FM301200 14009KT 5SM -SN BKN009 OVC030
     FM301500 14007KT 1/2SM SN FG OVC001
      AMD LTD TO CLD VIS AND WIND=



000
FTUS41 KCAR 292327
TAFPQI
TAF
KPQI 292327Z 3000/3024 VRB03KT P6SM SCT250
     FM300930 15008KT 6SM -SN SCT009 BKN015 OVC080
     FM301500 14006KT 1 1/2SM -SN OVC025
     FM301800 14007KT 1/2SM SN FG OVC001
      AMD LTD TO CLD VIS AND WIND=



000
FTUS41 KCAR 292327
TAFCAR
TAF
KCAR 292327Z 3000/3024 13005KT P6SM SCT200
     FM300930 14006KT 3SM -SN SCT009 OVC025
     FM301400 13007KT 1SM -SN OVC015
     FM301800 14007KT 1/2SM SN FG OVC001=



000
FTUS41 KCAR 292327
TAFBGR
TAF
KBGR 292327Z 3000/3024 00000KT P6SM FEW200
     FM300500 13006KT P6SM OVC015
     FM301200 13007KT 1SM -SN OVC015
     FM301500 14007KT 1/2SM SN FG OVC001=



000
FTUS41 KCAR 292327
TAFBHB
TAF
KBHB 292327Z 3000/3024 00000KT P6SM FEW200
     FM300300 16006KT P6SM BKN015
     FM301200 14009KT 5SM -SN BKN009 OVC030
     FM301500 14007KT 1/2SM SN FG OVC001
      AMD LTD TO CLD VIS AND WIND=



000
FTUS41 KCAR 292327
TAFHUL
TAF
KHUL 292327Z 3000/3024 VRB03KT P6SM FEW200
     FM300800 13006KT 6SM -SN SCT009 BKN015 OVC070
     FM301500 12007KT 1SM -SN OVC015
     FM301800 14007KT 1/2SM SN FG OVC001=



000
FTUS41 KCAR 291730
TAFCAR
TAF
KCAR 291730Z 2918/3018 13005KT P6SM SCT200
     FM292300 16006KT P6SM SCT250
     FM300930 14006KT 3SM -SN SCT009 OVC025
     FM301400 13007KT 1SM -SN OVC015=



000
FTUS41 KCAR 291730
TAFPQI
TAF
KPQI 291730Z 2918/3018 VRB03KT P6SM SCT250
     FM292200 16006KT P6SM SCT250
     FM300930 15008KT 6SM -SN SCT009 BKN015 OVC080
     FM301500 14006KT 1 1/2SM -SN OVC025
      AMD LTD TO CLD VIS AND WIND=



000
FTUS41 KCAR 291730
TAFBHB
TAF
KBHB 291730Z 2918/3018 00000KT P6SM FEW200
     FM300300 16006KT P6SM BKN015
     FM301200 14009KT 5SM -SN BKN009 OVC030
     FM301700 13012KT 1SM -SN OVC009
      AMD LTD TO CLD VIS AND WIND=



000
FTUS41 KCAR 291730
TAFHUL
TAF
KHUL 291730Z 2918/3018 VRB03KT P6SM FEW200
     FM300800 13006KT 6SM -SN SCT009 BKN015 OVC070
     FM301500 12007KT 1SM -SN OVC015=



000
FTUS41 KCAR 291730
TAFBGR
TAF
KBGR 291730Z 2918/3018 00000KT P6SM FEW200
     FM300500 13006KT P6SM OVC015
     FM301600 13007KT 1SM -SN OVC015=



000
FTUS41 KCAR 291120
TAFHUL
TAF
KHUL 291120Z 2912/3012 00000KT P6SM SKC
     FM292100 18004KT P6SM SCT150 BKN250
     FM300400 16005KT P6SM BKN120 OVC180
     FM301000 14006KT P6SM SCT030 OVC050=



000
FTUS41 KCAR 291120
TAFBGR
TAF
KBGR 291120Z 2912/3012 00000KT P6SM SKC
     FM292100 18004KT P6SM SCT150 BKN250
     FM300400 15003KT P6SM BKN090 OVC150
     FM301100 15004KT 3SM -SN OVC025=



000
FTUS41 KCAR 291120
TAFBHB
TAF
KBHB 291120Z 2912/3012 00000KT P6SM SKC
     FM292100 18004KT P6SM SCT150 BKN250
     FM300400 15003KT P6SM BKN090 OVC150
     FM301100 15006KT P6SM OVC040
      AMD LTD TO CLD VIS AND WIND=



000
FTUS41 KCAR 291120
TAFCAR
TAF
KCAR 291120Z 2912/3012 VRB03KT P6SM SKC
     FM292100 17004KT P6SM SCT150 BKN250
     FM300500 14006KT P6SM BKN090 OVC150
     FM301000 13007KT P6SM SCT025 OVC040=



000
FTUS41 KCAR 291120
TAFPQI
TAF
KPQI 291120Z 2912/3012 00000KT P6SM SKC
     FM292200 17004KT P6SM SCT150 BKN250
     FM300500 15005KT P6SM BKN100 OVC170
     FM301000 13006KT P6SM SCT030 OVC050
      AMD LTD TO CLD VIS AND WIND=



000
FTUS41 KCAR 290520
TAFHUL
TAF
KHUL 290520Z 2906/3006 35004KT P6SM SKC
     FM292100 18004KT P6SM SCT150 BKN250
     FM300400 16005KT P6SM BKN120 OVC180=



000
FTUS41 KCAR 290520
TAFPQI
TAF
KPQI 290520Z 2906/3006 00000KT P6SM SKC
     FM292200 17004KT P6SM SCT150 BKN250
     FM300500 15005KT P6SM BKN100 OVC170
      AMD LTD TO CLD VIS AND WIND=



000
FTUS41 KCAR 290520
TAFBGR
TAF
KBGR 290520Z 2906/3006 00000KT P6SM SKC
     FM292100 18004KT P6SM SCT150 BKN250
     FM300400 15003KT P6SM BKN090 OVC150=



000
FTUS41 KCAR 290520
TAFCAR
TAF
KCAR 290520Z 2906/3006 33006KT P6SM SKC
     FM292100 17004KT P6SM SCT150 BKN250
     FM300500 14006KT P6SM BKN090 OVC150=



000
FTUS41 KCAR 290520
TAFBHB
TAF
KBHB 290520Z 2906/3006 00000KT P6SM SKC
     FM292100 18004KT P6SM SCT150 BKN250
     FM300400 15003KT P6SM BKN090 OVC150
      AMD LTD TO CLD VIS AND WIND=



000
FTUS41 KCAR 282338
TAFCAR
TAF
KCAR 282338Z 2900/2924 32008G16KT P6SM SCT050
     FM290600 31004KT P6SM FEW150
     FM292100 17004KT P6SM SCT150 BKN250=



000
FTUS41 KCAR 282338
TAFHUL
TAF
KHUL 282338Z 2900/2924 33009KT P6SM BKN050
     FM290300 32006KT P6SM FEW100
     FM290700 32004KT P6SM SKC
     FM292100 18004KT P6SM SCT150 BKN250=



000
FTUS41 KCAR 282338
TAFBHB
TAF
KBHB 282338Z 2900/2924 34009KT P6SM SCT060
     FM290500 33006KT P6SM FEW100
     FM291200 33004KT P6SM SKC
     FM292100 18004KT P6SM SCT150 BKN250
      AMD LTD TO CLD VIS AND WIND=



000
FTUS41 KCAR 282338
TAFBGR
TAF
KBGR 282338Z 2900/2924 32006KT P6SM SCT060
     FM290500 VRB03KT P6SM FEW100
     FM292100 18004KT P6SM SCT150 BKN250=



000
FTUS41 KCAR 282338
TAFPQI
TAF
KPQI 282338Z 2900/2924 33008KT P6SM SCT050
     FM290600 31004KT P6SM FEW150
     FM292200 17004KT P6SM SCT150 BKN250
      AMD LTD TO CLD VIS AND WIND=



000
FTUS41 KCAR 281858 AAB
TAFBGR
TAF AMD
KBGR 281858Z 2819/2918 34014G20KT 5SM -SHSN OVC035
     FM282000 34012KT P6SM BKN035
     FM282200 33007KT P6SM BKN050
     FM290900 VRB03KT P6SM SKC=



000
FTUS41 KCAR 281748 AAA
TAFBGR
TAF AMD
KBGR 281748Z 2818/2918 34014G20KT 2SM -SHSN OVC030
     FM282000 34012KT P6SM BKN035
     FM282200 33007KT P6SM BKN050
     FM290900 VRB03KT P6SM SKC=



000
FTUS41 KCAR 281729
TAFBGR
TAF
KBGR 281729Z 2818/2918 34014G20KT 3SM -SHSN OVC030
     FM282000 34012KT P6SM BKN035
     FM282200 33007KT P6SM BKN050
     FM290900 VRB03KT P6SM SKC=



000
FTUS41 KCAR 281729
TAFHUL
TAF
KHUL 281729Z 2818/2918 34014KT 2SM -SN BKN020
     FM282000 34012KT 4SM -SHSN BKN030
     FM282200 34013KT P6SM BKN025
     FM290000 33012KT P6SM BKN250
     FM290500 32004KT P6SM FEW250=



000
FTUS41 KCAR 281729
TAFBHB
TAF
KBHB 281729Z 2818/2918 35016KT 6SM -SHSN BKN035
     FM290300 34009KT P6SM SCT250
     FM291400 35005KT P6SM FEW250
      AMD LTD TO CLD VIS AND WIND=



000
FTUS41 KCAR 281729
TAFCAR
TAF
KCAR 281729Z 2818/2918 34012KT P6SM OVC035
     FM282200 33009KT P6SM SCT025
     FM290000 32008KT P6SM SCT250
     FM290800 30004KT P6SM SKC=



000
FTUS41 KCAR 281729
TAFPQI
TAF
KPQI 281729Z 2818/2918 34012KT P6SM BKN035
     FM282200 33010KT P6SM SCT025
     FM290600 31005KT P6SM FEW250
      AMD LTD TO CLD VIS AND WIND=



000
FTUS41 KCAR 281635 AAC
TAFCAR
TAF AMD
KCAR 281635Z 2817/2912 36012G20KT P6SM OVC050
     FM282300 31007KT P6SM SCT040
     FM290300 32006KT P6SM SKC=



000
FTUS41 KCAR 281559 AAB
TAFPQI
TAF AMD
KPQI 281559Z 2816/2912 35012G20KT 5SM -SHSN OVC030
     FM281900 31007KT P6SM SCT040
     FM290300 30004KT P6SM SKC
      AMD LTD TO CLD VIS AND WIND=



000
FTUS41 KCAR 281557 AAB
TAFBGR
TAF AMD
KBGR 281557Z 2816/2912 34011KT P6SM VCSH BKN035
     FM282300 32007KT P6SM SCT035
     FM290300 29003KT P6SM SKC=



000
FTUS41 KCAR 281509 AAC
TAFCAR
TAF AMD
KCAR 281509Z 2815/2912 01015G25KT 1SM -SN BLSN OVC020
     FM282000 36012G20KT P6SM OVC050
     FM282300 31007KT P6SM SCT040
     FM290300 32006KT P6SM SKC=



000
FTUS41 KCAR 281425 AAB
TAFHUL
TAF AMD
KHUL 281425Z 2814/2912 36016G26KT 2SM -SN BLSN OVC020
     FM282000 33010G18KT P6SM OVC035
     FM290000 32008KT P6SM SCT040
     FM290300 33005KT P6SM SKC=



000
FTUS41 KCAR 281315 AAA
TAFBGR
TAF AMD
KBGR 281315Z 2813/2912 35012G20KT 2SM -SN BLSN OVC050
     FM281800 34011KT P6SM BKN035
     FM282300 32007KT P6SM SCT035
     FM290300 29003KT P6SM SKC=



000
FTUS41 KCAR 281305 AAB
TAFCAR
TAF AMD
KCAR 281305Z 2813/2912 01015G25KT 1SM -SN BLSN OVC020
     FM281500 36012G20KT P6SM OVC050
     FM282300 31007KT P6SM SCT040
     FM290300 32006KT P6SM SKC=



000
FTUS41 KCAR 281233 AAA
TAFBHB
TAF AMD
KBHB 281233Z 2813/2912 34013G23KT 1SM -SN BLSN OVC015
     FM281500 35012G20KT 5SM BLSN OVC030
     FM281900 34010G18KT P6SM BKN040
     FM282300 32007KT P6SM SCT035
     FM290300 35004KT P6SM SKC
      AMD LTD TO CLD VIS AND WIND=



000
FTUS41 KCAR 281231 AAA
TAFPQI
TAF AMD
KPQI 281231Z 2813/2912 01015G25KT 2SM -SN BLSN OVC020
     FM281500 35012G20KT 5SM -SHSN OVC030
     FM282000 31007KT P6SM SCT040
     FM290300 30004KT P6SM SKC
      AMD LTD TO CLD VIS AND WIND=



000
FTUS41 KCAR 281231 AAA
TAFHUL
TAF AMD
KHUL 281231Z 2813/2912 36016G26KT 2SM -SN BLSN OVC020
     FM281400 35012G20KT 6SM BLSN VCSH OVC030
     FM281900 33010G18KT P6SM OVC035
     FM290000 32008KT P6SM SCT040
     FM290300 33005KT P6SM SKC=



000
FTUS41 KCAR 281139
TAFHUL
TAF
KHUL 281139Z 2812/2912 36016G26KT 3SM -SN BLSN OVC020
     FM281400 35012G20KT 6SM BLSN VCSH OVC035
     FM281900 33010G18KT P6SM OVC035
     FM290000 32008KT P6SM SCT040
     FM290300 33005KT P6SM SKC=



000
FTUS41 KCAR 281139
TAFBGR
TAF
KBGR 281139Z 2812/2912 35013G23KT 4SM -SN BLSN OVC035
     FM281300 35012G20KT 6SM BLSN OVC050
     FM281900 34011KT P6SM BKN035
     FM282300 32007KT P6SM SCT035
     FM290300 29003KT P6SM SKC=



000
FTUS41 KCAR 281139
TAFPQI
TAF
KPQI 281139Z 2812/2912 01015G25KT 3SM -SN BLSN OVC020
     FM281500 35012G20KT P6SM OVC050
     FM282300 31007KT P6SM SCT040
     FM290300 30004KT P6SM SKC
      AMD LTD TO CLD VIS AND WIND=



000
FTUS41 KCAR 281139
TAFCAR
TAF
KCAR 281139Z 2812/2912 01015G25KT 2SM -SN BLSN OVC020
     FM281400 36012G20KT P6SM OVC050
     FM282300 31007KT P6SM SCT040
     FM290300 32006KT P6SM SKC=



000
FTUS41 KCAR 281139
TAFBHB
TAF
KBHB 281139Z 2812/2912 34013G23KT 5SM -SN BLSN OVC035
      TEMPO 2812/2813 2SM -SN OVC015
     FM281300 35012G20KT 6SM BLSN OVC050
     FM281900 34010G18KT P6SM BKN040
     FM282300 32007KT P6SM SCT035
     FM290300 35004KT P6SM SKC
      AMD LTD TO CLD VIS AND WIND=



000
FTUS41 KCAR 281012 AAA
TAFBHB
TAF AMD
KBHB 281012Z 2810/2906 01016G28KT 1SM -SN BLSN OVC015
     FM281200 35014G23KT 6SM -SHSN BLSN OVC020
     FM281900 34010G18KT P6SM BKN040
     FM282300 32007KT P6SM SCT035
      AMD LTD TO CLD VIS AND WIND=



000
FTUS41 KCAR 281012 AAA
TAFBHB
TAF AMD
KBHB 281012Z 2810/2906 01016G28KT 1SM -SN BLSN OVC015
     FM281200 35014G23KT 6SM -SHSN BLSN OVC020
     FM281900 34010G18KT P6SM BKN040
     FM282300 32007KT P6SM SCT035
      AMD LTD TO CLD VIS AND WIND=



000
FTUS41 KCAR 280945 AAA
TAFPQI
TAF AMD
KPQI 280945Z 2810/2906 01015G25KT 1SM -SN BLSN OVC008
     FM281200 36012G20KT 6SM -SHSN BLSN OVC050
     FM281800 33010G18KT P6SM OVC050
     FM282300 31007KT P6SM SCT040
      AMD LTD TO CLD VIS AND WIND=



000
FTUS41 KCAR 280945 AAA
TAFPQI
TAF AMD
KPQI 280945Z 2810/2906 01015G25KT 1SM -SN BLSN OVC008
     FM281200 36012G20KT 6SM -SHSN BLSN OVC050
     FM281800 33010G18KT P6SM OVC050
     FM282300 31007KT P6SM SCT040
      AMD LTD TO CLD VIS AND WIND=



000
FTUS41 KCAR 280845 AAA
TAFHUL
TAF AMD
KHUL 280845Z 2809/2906 01013G22KT 2SM -SN BLSN OVC020
      TEMPO 2809/2811 1/2SM SN OVC008
     FM281200 35012G20KT 4SM -SHSN BLSN OVC035
     FM281900 33010G18KT P6SM OVC035
     FM290000 32008KT P6SM SCT040=



000
FTUS41 KCAR 280844 AAA
TAFCAR
TAF AMD
KCAR 280844Z 2809/2906 01015G25KT 2SM -SN BLSN OVC020
     FM281200 36012G20KT 6SM -SHSN BLSN OVC050
     FM281800 34010G18KT P6SM OVC050
     FM282300 31007KT P6SM SCT040=



000
FTUS41 KCAR 280531
TAFBHB
TAF
KBHB 280531Z 2806/2906 01016G28KT 5SM -SN BLSN OVC020
     FM281200 35014G23KT 6SM -SHSN BLSN OVC020
     FM281900 34010G18KT P6SM BKN040
     FM282300 32007KT P6SM SCT035
      AMD LTD TO CLD VIS AND WIND=



000
FTUS41 KCAR 280531
TAFBGR
TAF
KBGR 280531Z 2806/2906 02016G28KT 1SM -SN BLSN OVC035
     FM281200 35012G20KT 6SM -SHSN BLSN BKN035 OVC060
     FM281900 34011KT P6SM BKN035
     FM282300 32007KT P6SM SCT035=



000
FTUS41 KCAR 280531
TAFCAR
TAF
KCAR 280531Z 2806/2906 01015G25KT 4SM -SN BLSN OVC040
     FM281200 36012G20KT 6SM -SHSN BLSN OVC050
     FM281800 34010G18KT P6SM OVC050
     FM282300 31007KT P6SM SCT040=



000
FTUS41 KCAR 280531
TAFHUL
TAF
KHUL 280531Z 2806/2906 01013G22KT 2SM -SN BLSN OVC020
     FM281200 35012G20KT 4SM -SHSN BLSN OVC035
     FM281900 33010G18KT P6SM OVC035
     FM290000 32008KT P6SM SCT040=



000
FTUS41 KCAR 280531
TAFPQI
TAF
KPQI 280531Z 2806/2906 01015G25KT 4SM -SN BLSN OVC040
     FM281200 36012G20KT 6SM -SHSN BLSN OVC050
     FM281800 33010G18KT P6SM OVC050
     FM282300 31007KT P6SM SCT040
      AMD LTD TO CLD VIS AND WIND=



000
FTUS41 KCAR 280357 AAA
TAFBHB
TAF AMD
KBHB 280357Z 2804/2824 01016G28KT 3SM -SN BLSN OVC014
     FM281200 35014G23KT 4SM -SHSN BLSN OVC020
     FM281600 35012G20KT P6SM OVC030
     FM281900 34010G18KT P6SM OVC040
      AMD LTD TO CLD VIS AND WIND=



000
FTUS41 KCAR 280355 AAA
TAFPQI
TAF AMD
KPQI 280355Z 2804/2824 01015G25KT 2SM -SN BLSN OVC015
     FM281200 36012G20KT 4SM -SHSN BLSN OVC015
     FM281600 34010G18KT P6SM OVC020
     FM281800 33010G18KT P6SM OVC025
     FM281900 33009KT P6SM OVC035
     FM282300 31007KT P6SM BKN045
      AMD LTD TO CLD VIS AND WIND=



000
FTUS41 KCAR 280355 AAA
TAFPQI
TAF AMD
KPQI 280355Z 2804/2824 01015G25KT 2SM -SN BLSN OVC015
     FM281200 36012G20KT 4SM -SHSN BLSN OVC015
     FM281600 34010G18KT P6SM OVC020
     FM281800 33010G18KT P6SM OVC025
     FM281900 33009KT P6SM OVC035
     FM282300 31007KT P6SM BKN045
      AMD LTD TO CLD VIS AND WIND=



000
FTUS41 KCAR 280355 AAB
TAFCAR
TAF AMD
KCAR 280355Z 2804/2824 36013G22KT 2SM -SN BLSN OVC015
     FM281200 36012G20KT 4SM -SHSN BLSN OVC015
     FM281600 34010G18KT P6SM OVC020
     FM281800 33010G18KT P6SM OVC025
     FM281900 33009KT P6SM OVC035
     FM282300 31007KT P6SM BKN045=



000
FTUS41 KCAR 280132 AAA
TAFHUL
TAF AMD
KHUL 280132Z 2802/2824 01013G22KT 2SM -SN BLSN OVC012
     FM281200 35012G20KT 4SM -SHSN BLSN OVC018
     FM281600 34012G20KT P6SM OVC025
     FM281900 33010G18KT P6SM OVC035=



000
FTUS41 KCAR 280132 AAA
TAFHUL
TAF AMD
KHUL 280132Z 2802/2824 01013G22KT 2SM -SN BLSN OVC012
     FM281200 35012G20KT 4SM -SHSN BLSN OVC018
     FM281600 34012G20KT P6SM OVC025
     FM281900 33010G18KT P6SM OVC035=



000
FTUS41 KCAR 272343
TAFBHB
TAF
KBHB 272343Z 2800/2824 02025G38KT 1SM -SN BLSN OVC008
     FM280600 01016G28KT 2SM -SN BLSN OVC014
     FM281200 35014G23KT 4SM -SHSN BLSN OVC020
     FM281600 35012G20KT P6SM OVC030
     FM281900 34010G18KT P6SM OVC040
      AMD LTD TO CLD VIS AND WIND=



000
FTUS41 KCAR 272343
TAFPQI
TAF
KPQI 272343Z 2800/2824 02015G25KT 1 1/2SM -SN BLSN OVC009
     FM280600 36013G22KT 2SM -SN BLSN OVC015
     FM281200 36012G20KT 4SM -SHSN BLSN OVC015
     FM281600 34010G18KT P6SM OVC020
     FM281800 33010G18KT P6SM OVC025
     FM281900 33009KT P6SM OVC035
     FM282300 31007KT P6SM BKN045
      AMD LTD TO CLD VIS AND WIND=



000
FTUS41 KCAR 272343
TAFBGR
TAF
KBGR 272343Z 2800/2824 02016G28KT 1SM -SN BLSN OVC008
     FM280600 01013G22KT 2SM -SN BLSN OVC012
     FM281200 35012G20KT 4SM -SHSN BLSN OVC018
     FM281600 34013KT P6SM OVC025
     FM281900 34011KT P6SM BKN035
     FM282300 32007KT P6SM BKN045=



000
FTUS41 KCAR 272343
TAFHUL
TAF
KHUL 272343Z 2800/2824 02016G28KT 1SM -SN BLSN OVC008
     FM280600 01013G22KT 2SM -SN BLSN OVC012
     FM281200 35012G20KT 4SM -SHSN BLSN OVC018
     FM281600 34012G20KT P6SM OVC025
     FM281900 33010G18KT P6SM OVC035=



000
FTUS41 KCAR 272343
TAFCAR
TAF
KCAR 272343Z 2800/2824 02015G25KT 1 1/2SM -SN BLSN OVC009
     FM280600 36013G22KT 2SM -SN BLSN OVC015
     FM281200 36012G20KT 4SM -SHSN BLSN OVC015
     FM281600 34010G18KT P6SM OVC020
     FM281800 33010G18KT P6SM OVC025
     FM281900 33009KT P6SM OVC035
     FM282300 31007KT P6SM BKN045=



000
FTUS41 KCAR 272204 AAA
TAFBGR
TAF AMD
KBGR 272204Z 2722/2818 02020G32KT 3/4SM -SN BLSN OVC012
     FM280000 35023G33KT 3SM -SN BLSN OVC008
     FM281000 34015G22KT P6SM VCSH BKN020=



000
FTUS41 KCAR 272203 AAB
TAFHUL
TAF AMD
KHUL 272203Z 2722/2818 02014G26KT 3/4SM -SN BLSN OVC008
     FM280200 01017G28KT 1 1/2SM -SN BLSN OVC012
     FM281000 33015G22KT P6SM VCSH BKN020=



000
FTUS41 KCAR 272202 AAB
TAFCAR
TAF AMD
KCAR 272202Z 2722/2818 01015G27KT 3/4SM -SN BLSN OVC012
     FM280200 36015G28KT 1 1/2SM -SN BLSN OVC008
     FM281000 33015G22KT 5SM -SHSN BKN015=



000
FTUS41 KCAR 272201 AAA
TAFPQI
TAF AMD
KPQI 272201Z 2722/2818 36018G30KT 3/4SM -SN BLSN OVC009
     FM280200 36015G28KT 3SM -SN BLSN OVC008
     FM281000 33015G22KT 6SM -SHSN BKN015
      AMD LTD TO CLD VIS AND WIND=



000
FTUS41 KCAR 271831 AAA
TAFHUL
TAF AMD
KHUL 271831Z 2719/2818 03017G28KT 1/4SM +SN BLSN OVC008
     FM272200 02019G32KT 3/4SM -SN BLSN OVC010
     FM280200 01017G28KT 1 1/2SM -SN BLSN OVC012
     FM281000 33015G22KT P6SM VCSH BKN020=



000
FTUS41 KCAR 271730
TAFPQI
TAF
KPQI 271730Z 2718/2818 01016G27KT 1/4SM +SN BLSN OVC005
     FM272300 36018G30KT 3/4SM -SN BLSN OVC007
     FM280200 36015G28KT 3SM -SN BLSN OVC008
     FM281000 33015G22KT 6SM -SHSN BKN015
      AMD LTD TO CLD VIS AND WIND=



000
FTUS41 KCAR 271730
TAFCAR
TAF
KCAR 271730Z 2718/2818 01016G27KT 1/4SM +SN BLSN OVC008
     FM272300 02018G30KT 3/4SM -SN BLSN OVC007
     FM280200 36015G28KT 1 1/2SM -SN BLSN OVC008
     FM281000 33015G22KT 5SM -SHSN BKN015=



000
FTUS41 KCAR 271730
TAFBGR
TAF
KBGR 271730Z 2718/2818 03032G42KT 1/4SM SN BLSN OVC008
     FM280000 35023G33KT 3SM -SN BLSN OVC008
     FM281000 34015G22KT P6SM VCSH BKN020=



000
FTUS41 KCAR 271730
TAFHUL
TAF
KHUL 271730Z 2718/2818 03017G28KT 1/4SM +SN BLSN OVC003
     FM272200 02019G32KT 3/4SM -SN BLSN OVC005
     FM280200 01017G28KT 1 1/2SM -SN BLSN OVC008
     FM281000 33015G22KT P6SM VCSH BKN020=



000
FTUS41 KCAR 271730
TAFBHB
TAF
KBHB 271730Z 2718/2818 02037G43KT 1/2SM SN BLSN OVC009
      TEMPO 2718/2722 1/4SM BLSN
     FM280000 35023G33KT 1 1/2SM -SN BLSN OVC008
     FM281100 34015G22KT P6SM VCSH BKN020
      AMD LTD TO CLD VIS AND WIND=



000
FTUS41 KCAR 271619 AAA
TAFHUL
TAF AMD
KHUL 271619Z 2716/2812 03017G28KT 1/4SM +SN BLSN OVC005
     FM272200 02019G32KT 3/4SM -SN BLSN OVC005
     FM280200 01017G28KT 1 1/2SM -SN BLSN OVC008=



000
FTUS41 KCAR 271618 AAB
TAFCAR
TAF AMD
KCAR 271618Z 2716/2812 01016G27KT 1/2SM SN BLSN OVC005
     FM272300 02018G30KT 3/4SM -SN BLSN OVC007
     FM280200 36015G28KT 1 1/2SM -SN BLSN OVC008=



000
FTUS41 KCAR 271618 AAB
TAFCAR
TAF AMD
KCAR 271618Z 2716/2812 01016G27KT 1/2SM SN BLSN OVC005
     FM272300 02018G30KT 3/4SM -SN BLSN OVC007
     FM280200 36015G28KT 1 1/2SM -SN BLSN OVC008=



000
FTUS41 KCAR 271617 AAA
TAFBHB
TAF AMD
KBHB 271617Z 2716/2812 01027G38KT 1/2SM SN BLSN OVC008
     FM271800 02037G43KT 3/4SM -SN BLSN OVC005
     FM280000 35023G33KT 1 1/2SM -SN BLSN OVC008
      AMD LTD TO CLD VIS AND WIND=



000
FTUS41 KCAR 271141
TAFBHB
TAF
KBHB 271141Z 2712/2812 01027G38KT 1/4SM +SN BLSN VV002
      TEMPO 2715/2718 1/2SM SN BLSN OVC003
     FM271800 02037G43KT 3/4SM -SN BLSN OVC005
     FM280000 35023G33KT 1 1/2SM -SN BLSN OVC008
      AMD LTD TO CLD VIS AND WIND=



000
FTUS41 KCAR 271141
TAFPQI
TAF
KPQI 271141Z 2712/2812 02012G18KT P6SM OVC050
     FM271300 01014G22KT 1 1/2SM -SN OVC015
     FM271500 01016G27KT 1/2SM SN BLSN OVC005
     FM272300 36018G30KT 3/4SM -SN BLSN OVC007
     FM280200 36015G28KT 1 1/2SM -SN BLSN OVC008
      AMD LTD TO CLD VIS AND WIND=



000
FTUS41 KCAR 271141
TAFCAR
TAF
KCAR 271141Z 2712/2812 01010KT P6SM OVC060
     FM271400 01014G22KT 1 1/2SM -SN OVC015
     FM271600 01016G27KT 1/2SM SN BLSN OVC005
     FM272300 02018G30KT 3/4SM -SN BLSN OVC007
     FM280200 36015G28KT 1 1/2SM -SN BLSN OVC008=



000
FTUS41 KCAR 271141
TAFHUL
TAF
KHUL 271141Z 2712/2812 03012G20KT 1 1/2SM -SN OVC020
     FM271300 03017G28KT 1/2SM SN BLSN OVC005
     FM272200 02019G32KT 3/4SM -SN BLSN OVC005
     FM280200 01017G28KT 1 1/2SM -SN BLSN OVC008=



000
FTUS41 KCAR 271141
TAFBGR
TAF
KBGR 271141Z 2712/2812 02025G36KT 1/4SM +SN BLSN VV002
      TEMPO 2715/2719 1/2SM SN BLSN OVC003
     FM271900 03032G42KT 1/2SM SN BLSN OVC003
     FM280000 35023G33KT 1 1/2SM -SN BLSN OVC008=



000
FTUS41 KCAR 270846 CCA
TAFBGR
TAF COR
KBGR 270846Z 2709/2806 02015G25KT P6SM -SN OVC040
     FM270930 02017G27KT 2SM -SN OVC020
     FM271000 03018G28KT 1/2SM SN BLSN OVC005
     FM271100 03023G35KT 1/4SM +SN BLSN VV003
     FM272100 03021G28KT 3/4SM -SN BLSN OVC008=



000
FTUS41 KCAR 270845 AAA
TAFBGR
TAF AMD
KBGR 270845Z 2709/2806 02015G25KT P6SM -SN OVC040
     FM270930 02017G27KT 2SM -SN OVC020
     FM271000 03018G28KT 1/2SM BLSN OVC005
     FM271100 03023G35KT 1/4SM +SN BLSN VV003
     FM272100 03021G28KT 3/4SM -SN BLSN OVC008=



    US Dept of Commerce
    National Oceanic and Atmospheric Administration
    National Weather Service
    1325 East West Highway
    Silver Spring, MD 20910
    Page Author: NWS Internet Services Team
Disclaimer
Information Quality
Credits
Glossary
Privacy Policy
Freedom of Information Act (FOIA)
About Us
Career Opportunities